createdAt,value
2018-09-11T00:00:10.239Z,14.41
2018-09-11T00:01:10.170Z,14.52
2018-09-11T00:02:10.087Z,14.38
2018-09-11T00:03:10.018Z,14.34
2018-09-11T00:04:09.937Z,14.27
2018-09-11T00:05:09.871Z,14.21
2018-09-11T00:06:09.791Z,14.27
2018-09-11T00:07:09.714Z,14.24
2018-09-11T00:08:09.630Z,14.28
2018-09-11T00:09:09.566Z,14.31
2018-09-11T00:10:09.480Z,14.32
2018-09-11T00:11:09.411Z,14.27
2018-09-11T00:12:09.334Z,14.35
2018-09-11T00:13:09.262Z,14.38
2018-09-11T00:14:09.179Z,14.36
2018-09-11T00:15:09.109Z,14.34
2018-09-11T00:16:09.026Z,14.35
2018-09-11T00:17:08.957Z,14.32
2018-09-11T00:18:08.881Z,14.31
2018-09-11T00:19:08.806Z,14.29
2018-09-11T00:20:08.725Z,14.21
2018-09-11T00:21:08.654Z,14.27
2018-09-11T00:22:08.569Z,14.31
2018-09-11T00:23:08.501Z,14.31
2018-09-11T00:24:08.422Z,14.27
2018-09-11T00:25:08.351Z,14.38
2018-09-11T00:26:08.270Z,14.34
2018-09-11T00:27:08.200Z,14.36
2018-09-11T00:28:08.120Z,14.46
2018-09-11T00:29:08.053Z,14.49
2018-09-11T00:30:07.963Z,14.46
2018-09-11T00:31:07.895Z,14.38
2018-09-11T00:32:07.811Z,14.47
2018-09-11T00:33:07.744Z,14.49
2018-09-11T00:34:07.663Z,14.38
2018-09-11T00:35:07.592Z,14.38
2018-09-11T00:36:07.508Z,14.38
2018-09-11T00:37:07.441Z,14.46
2018-09-11T00:38:07.358Z,14.38
2018-09-11T00:39:07.289Z,14.35
2018-09-11T00:40:07.206Z,14.36
2018-09-11T00:41:07.138Z,14.35
2018-09-11T00:42:07.055Z,14.35
2018-09-11T00:43:06.989Z,14.35
2018-09-11T00:44:06.902Z,14.24
2018-09-11T00:45:06.843Z,14.29
2018-09-11T00:46:06.751Z,14.28
2018-09-11T00:47:06.682Z,14.32
2018-09-11T00:48:06.596Z,14.31
2018-09-11T00:49:06.530Z,14.36
2018-09-11T00:50:06.445Z,14.34
2018-09-11T00:51:06.377Z,14.38
2018-09-11T00:52:06.296Z,14.38
2018-09-11T00:53:06.226Z,14.39
2018-09-11T00:54:06.143Z,14.39
2018-09-11T00:55:06.074Z,14.36
2018-09-11T00:56:05.991Z,14.53
2018-09-11T00:57:05.921Z,14.36
2018-09-11T00:58:05.838Z,14.29
2018-09-11T00:59:05.767Z,14.21
2018-09-11T01:00:05.687Z,14.20
2018-09-11T01:01:05.620Z,14.20
2018-09-11T01:02:05.537Z,14.14
2018-09-11T01:03:05.467Z,14.31
2018-09-11T01:04:05.382Z,14.14
2018-09-11T01:05:05.319Z,14.32
2018-09-11T01:06:05.231Z,14.27
2018-09-11T01:07:05.158Z,14.31
2018-09-11T01:08:05.081Z,14.32
2018-09-11T01:09:05.015Z,14.28
2018-09-11T01:10:04.930Z,14.27
2018-09-11T01:11:04.859Z,14.21
2018-09-11T01:12:04.776Z,14.28
2018-09-11T01:13:04.708Z,14.20
2018-09-11T01:14:04.619Z,14.24
2018-09-11T01:15:04.552Z,14.32
2018-09-11T01:16:04.472Z,14.23
2018-09-11T01:17:04.406Z,14.20
2018-09-11T01:18:04.319Z,14.31
2018-09-11T01:19:04.253Z,14.29
2018-09-11T01:20:04.168Z,14.17
2018-09-11T01:21:04.102Z,14.17
2018-09-11T01:22:04.016Z,14.27
2018-09-11T01:23:03.947Z,14.23
2018-09-11T01:24:03.862Z,14.28
2018-09-11T01:25:03.799Z,14.28
2018-09-11T01:26:03.715Z,14.35
2018-09-11T01:27:03.649Z,14.36
2018-09-11T01:28:03.565Z,14.34
2018-09-11T01:29:03.490Z,14.36
2018-09-11T01:30:03.407Z,14.36
2018-09-11T01:31:03.347Z,14.32
2018-09-11T01:32:03.255Z,14.24
2018-09-11T01:33:03.196Z,14.24
2018-09-11T01:34:03.102Z,14.21
2018-09-11T01:35:03.041Z,14.21
2018-09-11T01:36:02.952Z,14.14
2018-09-11T01:37:02.884Z,14.16
2018-09-11T01:38:02.804Z,14.21
2018-09-11T01:39:02.732Z,14.13
2018-09-11T01:40:02.647Z,14.14
2018-09-11T01:41:02.577Z,14.14
2018-09-11T01:42:02.495Z,14.13
2018-09-11T01:43:02.430Z,14.13
2018-09-11T01:44:02.343Z,14.19
2018-09-11T01:45:02.278Z,14.14
2018-09-11T01:46:02.191Z,14.19
2018-09-11T01:47:02.121Z,14.19
2018-09-11T01:48:02.042Z,14.17
2018-09-11T01:49:01.973Z,14.16
2018-09-11T01:50:01.887Z,14.09
2018-09-11T01:51:01.819Z,14.05
2018-09-11T01:52:01.741Z,13.94
2018-09-11T01:53:01.668Z,13.99
2018-09-11T01:54:01.582Z,14.01
2018-09-11T01:55:01.517Z,13.89
2018-09-11T01:56:01.434Z,13.96
2018-09-11T01:57:01.366Z,13.95
2018-09-11T01:58:01.282Z,14.01
2018-09-11T01:59:01.214Z,14.03
2018-09-11T02:00:01.128Z,14.02
2018-09-11T02:01:01.061Z,14.09
2018-09-11T02:02:00.984Z,14.10
2018-09-11T02:03:00.906Z,14.13
2018-09-11T02:04:00.823Z,14.10
2018-09-11T02:05:00.756Z,13.99
2018-09-11T02:06:00.671Z,14.05
2018-09-11T02:07:00.604Z,14.09
2018-09-11T02:08:00.518Z,14.05
2018-09-11T02:09:00.452Z,13.84
2018-09-11T02:10:00.365Z,13.70
2018-09-11T02:11:00.297Z,13.65
2018-09-11T02:12:00.213Z,13.63
2018-09-11T02:13:00.145Z,13.66
2018-09-11T02:14:00.067Z,13.62
2018-09-11T02:14:59.991Z,13.71
2018-09-11T02:15:59.909Z,13.74
2018-09-11T02:16:59.844Z,13.62
2018-09-11T02:17:59.764Z,13.71
2018-09-11T02:18:59.689Z,13.71
2018-09-11T02:19:59.604Z,13.59
2018-09-11T02:20:59.543Z,13.68
2018-09-11T02:21:59.452Z,13.76
2018-09-11T02:22:59.385Z,13.80
2018-09-11T02:23:59.300Z,13.73
2018-09-11T02:24:59.246Z,13.78
2018-09-11T02:25:59.147Z,13.77
2018-09-11T02:26:59.083Z,13.81
2018-09-11T02:27:58.994Z,13.76
2018-09-11T02:28:58.977Z,13.84
2018-09-11T02:29:58.842Z,13.78
2018-09-11T02:30:58.772Z,13.78
2018-09-11T02:31:58.692Z,13.78
2018-09-11T02:32:58.624Z,13.70
2018-09-11T02:33:58.539Z,13.73
2018-09-11T02:34:58.465Z,13.78
2018-09-11T02:35:58.387Z,13.61
2018-09-11T02:36:58.315Z,13.73
2018-09-11T02:37:58.229Z,13.78
2018-09-11T02:38:58.163Z,13.76
2018-09-11T02:39:58.084Z,13.84
2018-09-11T02:40:58.014Z,13.84
2018-09-11T02:41:57.926Z,13.92
2018-09-11T02:42:57.859Z,13.86
2018-09-11T02:43:57.774Z,13.74
2018-09-11T02:44:57.707Z,13.78
2018-09-11T02:45:57.625Z,13.77
2018-09-11T02:46:57.555Z,13.63
2018-09-11T02:47:57.474Z,13.71
2018-09-11T02:48:57.405Z,13.61
2018-09-11T02:49:57.320Z,13.48
2018-09-11T02:50:57.249Z,13.47
2018-09-11T02:51:57.165Z,13.52
2018-09-11T02:52:57.097Z,13.47
2018-09-11T02:53:57.015Z,13.43
2018-09-11T02:54:56.956Z,13.32
2018-09-11T02:55:56.862Z,13.37
2018-09-11T02:56:56.796Z,13.40
2018-09-11T02:57:56.704Z,13.40
2018-09-11T02:58:56.642Z,13.33
2018-09-11T02:59:56.555Z,13.25
2018-09-11T03:00:56.484Z,13.27
2018-09-11T03:01:56.403Z,13.41
2018-09-11T03:02:56.331Z,13.33
2018-09-11T03:03:56.250Z,13.44
2018-09-11T03:04:56.181Z,13.38
2018-09-11T03:05:56.097Z,13.47
2018-09-11T03:06:56.026Z,13.43
2018-09-11T03:07:55.944Z,13.44
2018-09-11T03:08:55.876Z,13.48
2018-09-11T03:09:55.791Z,13.66
2018-09-11T03:10:55.729Z,13.66
2018-09-11T03:11:55.638Z,13.62
2018-09-11T03:12:55.572Z,13.73
2018-09-11T03:13:55.484Z,13.77
2018-09-11T03:14:55.415Z,13.78
2018-09-11T03:15:55.332Z,13.84
2018-09-11T03:16:55.263Z,13.95
2018-09-11T03:17:55.176Z,13.95
2018-09-11T03:18:55.117Z,14.02
2018-09-11T03:19:55.027Z,14.03
2018-09-11T03:20:54.957Z,14.07
2018-09-11T03:21:54.876Z,14.14
2018-09-11T03:22:54.805Z,14.16
2018-09-11T03:23:54.721Z,14.19
2018-09-11T03:24:54.654Z,14.14
2018-09-11T03:25:54.568Z,14.19
2018-09-11T03:26:54.500Z,14.17
2018-09-11T03:27:54.414Z,14.28
2018-09-11T03:28:54.346Z,14.27
2018-09-11T03:29:54.260Z,14.31
2018-09-11T03:30:54.196Z,14.23
2018-09-11T03:31:54.110Z,14.23
2018-09-11T03:32:54.042Z,14.31
2018-09-11T03:33:53.957Z,14.36
2018-09-11T03:34:53.887Z,14.38
2018-09-11T03:35:53.806Z,14.31
2018-09-11T03:36:53.739Z,14.36
2018-09-11T03:37:53.654Z,14.36
2018-09-11T03:38:53.625Z,14.39
2018-09-11T03:39:53.502Z,14.36
2018-09-11T03:40:53.433Z,14.47
2018-09-11T03:41:53.346Z,14.38
2018-09-11T03:42:53.280Z,14.49
2018-09-11T03:43:53.255Z,14.46
2018-09-11T03:44:53.126Z,14.34
2018-09-11T03:45:53.053Z,14.39
2018-09-11T03:46:52.967Z,14.28
2018-09-11T03:47:52.975Z,14.23
2018-09-11T03:48:52.813Z,14.17
2018-09-11T03:49:52.743Z,14.13
2018-09-11T03:50:52.662Z,14.01
2018-09-11T03:51:52.694Z,13.98
2018-09-11T03:52:52.508Z,13.99
2018-09-11T03:53:52.502Z,14.03
2018-09-11T03:54:52.356Z,14.01
2018-09-11T03:55:52.310Z,14.03
2018-09-11T03:56:52.209Z,14.05
2018-09-11T03:57:52.225Z,14.09
2018-09-11T03:58:52.053Z,14.02
2018-09-11T03:59:52.030Z,13.91
2018-09-11T04:00:51.898Z,13.95
2018-09-11T04:01:51.838Z,13.94
2018-09-11T04:02:51.742Z,13.92
2018-09-11T04:03:51.750Z,13.77
2018-09-11T04:04:51.593Z,13.80
2018-09-11T04:05:51.560Z,13.65
2018-09-11T04:06:51.441Z,13.63
2018-09-11T04:07:51.469Z,13.53
2018-09-11T04:08:51.291Z,13.52
2018-09-11T04:09:51.281Z,13.53
2018-09-11T04:10:51.142Z,13.44
2018-09-11T04:11:51.086Z,13.40
2018-09-11T04:12:50.982Z,13.48
2018-09-11T04:13:50.998Z,13.44
2018-09-11T04:14:50.828Z,13.50
2018-09-11T04:15:50.806Z,13.50
2018-09-11T04:16:50.677Z,13.53
2018-09-11T04:17:50.716Z,13.48
2018-09-11T04:18:50.523Z,13.44
2018-09-11T04:19:50.526Z,13.53
2018-09-11T04:20:50.369Z,13.53
2018-09-11T04:21:50.335Z,13.53
2018-09-11T04:22:50.227Z,13.44
2018-09-11T04:23:50.245Z,13.43
2018-09-11T04:24:50.064Z,13.32
2018-09-11T04:25:50.126Z,13.25
2018-09-11T04:26:49.914Z,13.24
2018-09-11T04:27:49.861Z,13.24
2018-09-11T04:28:49.760Z,13.14
2018-09-11T04:29:49.779Z,13.15
2018-09-11T04:30:49.624Z,13.15
2018-09-11T04:31:49.582Z,13.10
2018-09-11T04:32:49.453Z,13.17
2018-09-11T04:33:49.494Z,13.10
2018-09-11T04:34:49.297Z,13.02
2018-09-11T04:35:49.300Z,13.06
2018-09-11T04:36:49.149Z,12.89
2018-09-11T04:37:49.109Z,12.97
2018-09-11T04:38:48.994Z,12.91
2018-09-11T04:39:49.018Z,13.02
2018-09-11T04:40:48.841Z,13.02
2018-09-11T04:41:48.829Z,12.94
2018-09-11T04:42:48.740Z,12.94
2018-09-11T04:43:48.637Z,12.97
2018-09-11T04:44:48.536Z,13.07
2018-09-11T04:45:48.551Z,13.00
2018-09-11T04:46:48.380Z,13.11
2018-09-11T04:47:48.357Z,13.15
2018-09-11T04:48:48.226Z,13.28
2018-09-11T04:49:48.160Z,13.33
2018-09-11T04:50:48.073Z,13.37
2018-09-11T04:51:48.003Z,13.45
2018-09-11T04:52:47.927Z,13.52
2018-09-11T04:53:47.886Z,13.61
2018-09-11T04:54:47.767Z,13.56
2018-09-11T04:55:47.799Z,13.68
2018-09-11T04:56:47.679Z,13.78
2018-09-11T04:57:47.542Z,13.86
2018-09-11T04:58:47.510Z,13.94
2018-09-11T04:59:47.385Z,14.02
2018-09-11T05:00:47.325Z,14.13
2018-09-11T05:01:47.239Z,14.19
2018-09-11T05:02:47.228Z,14.19
2018-09-11T05:03:47.079Z,14.17
2018-09-11T05:04:47.018Z,14.27
2018-09-11T05:05:46.926Z,14.28
2018-09-11T05:06:46.944Z,14.36
2018-09-11T05:07:46.772Z,14.36
2018-09-11T05:08:46.756Z,14.39
2018-09-11T05:09:46.617Z,14.39
2018-09-11T05:10:46.551Z,14.38
2018-09-11T05:11:46.464Z,14.46
2018-09-11T05:12:46.477Z,14.39
2018-09-11T05:13:46.311Z,14.49
2018-09-11T05:14:51.006Z,14.54
2018-09-11T05:15:46.159Z,14.59
2018-09-11T05:16:46.197Z,14.68
2018-09-11T05:17:46.009Z,14.65
2018-09-11T05:18:45.936Z,14.80
2018-09-11T05:19:45.850Z,14.80
2018-09-11T05:20:46.247Z,14.74
2018-09-11T05:21:45.696Z,14.90
2018-09-11T05:22:45.726Z,14.90
2018-09-11T05:23:45.548Z,14.87
2018-09-11T05:24:45.533Z,14.88
2018-09-11T05:25:45.394Z,14.95
2018-09-11T05:26:45.344Z,14.95
2018-09-11T05:27:45.242Z,14.94
2018-09-11T05:28:45.182Z,14.97
2018-09-11T05:29:45.089Z,15.02
2018-09-11T05:30:45.027Z,15.08
2018-09-11T05:31:44.968Z,15.12
2018-09-11T05:32:44.862Z,15.15
2018-09-11T05:33:44.793Z,15.20
2018-09-11T05:34:44.713Z,15.15
2018-09-11T05:35:44.633Z,15.18
2018-09-11T05:36:44.592Z,15.18
2018-09-11T05:37:44.481Z,15.26
2018-09-11T05:38:44.504Z,15.26
2018-09-11T05:39:44.327Z,15.27
2018-09-11T05:40:44.317Z,15.27
2018-09-11T05:41:44.179Z,15.38
2018-09-11T05:42:44.121Z,15.31
2018-09-11T05:43:44.022Z,15.34
2018-09-11T05:44:44.036Z,15.35
2018-09-11T05:45:43.869Z,15.45
2018-09-11T05:46:43.839Z,15.48
2018-09-11T05:47:43.715Z,15.51
2018-09-11T05:48:43.755Z,15.49
2018-09-11T05:49:43.567Z,15.57
2018-09-11T05:50:43.562Z,15.45
2018-09-11T05:51:43.414Z,15.48
2018-09-11T05:52:43.373Z,15.55
2018-09-11T05:53:43.263Z,15.57
2018-09-11T05:54:43.185Z,15.57
2018-09-11T05:55:43.187Z,15.61
2018-09-11T05:56:43.029Z,15.71
2018-09-11T05:57:42.996Z,15.70
2018-09-11T05:58:42.882Z,15.76
2018-09-11T05:59:42.913Z,15.79
2018-09-11T06:00:42.729Z,15.83
2018-09-11T06:01:42.720Z,15.88
2018-09-11T06:02:42.589Z,15.88
2018-09-11T06:03:42.526Z,15.91
2018-09-11T06:04:42.427Z,15.97
2018-09-11T06:05:42.464Z,16.03
2018-09-11T06:06:42.274Z,16.04
2018-09-11T06:07:42.249Z,16.10
2018-09-11T06:08:42.149Z,16.23
2018-09-11T06:09:42.160Z,16.23
2018-09-11T06:10:41.973Z,16.20
2018-09-11T06:11:41.901Z,16.20
2018-09-11T06:12:41.821Z,16.26
2018-09-11T06:13:41.776Z,16.20
2018-09-11T06:14:41.672Z,16.30
2018-09-11T06:15:41.688Z,16.23
2018-09-11T06:16:41.515Z,16.33
2018-09-11T06:17:41.497Z,16.34
2018-09-11T06:18:41.368Z,16.41
2018-09-11T06:19:41.412Z,16.44
2018-09-11T06:20:41.213Z,16.38
2018-09-11T06:21:41.219Z,16.41
2018-09-11T06:22:41.062Z,16.45
2018-09-11T06:23:41.026Z,16.53
2018-09-11T06:24:40.910Z,16.50
2018-09-11T06:25:40.988Z,16.59
2018-09-11T06:26:40.760Z,16.65
2018-09-11T06:27:40.742Z,16.65
2018-09-11T06:28:40.611Z,16.63
2018-09-11T06:29:40.549Z,16.77
2018-09-11T06:30:40.461Z,16.75
2018-09-11T06:31:40.385Z,16.78
2018-09-11T06:32:40.310Z,16.85
2018-09-11T06:33:40.279Z,16.92
2018-09-11T06:34:40.155Z,17.00
2018-09-11T06:35:40.188Z,17.00
2018-09-11T06:36:40.005Z,17.14
2018-09-11T06:37:39.994Z,17.08
2018-09-11T06:38:39.855Z,17.10
2018-09-11T06:39:39.807Z,17.17
2018-09-11T06:40:39.703Z,17.20
2018-09-11T06:41:39.717Z,17.25
2018-09-11T06:42:39.554Z,17.23
2018-09-11T06:43:39.526Z,17.21
2018-09-11T06:44:39.443Z,17.29
2018-09-11T06:45:39.325Z,17.29
2018-09-11T06:46:39.343Z,17.43
2018-09-11T06:47:39.172Z,17.46
2018-09-11T06:48:39.153Z,17.50
2018-09-11T06:49:39.024Z,17.57
2018-09-11T06:50:39.064Z,17.63
2018-09-11T06:51:38.876Z,17.69
2018-09-11T06:52:38.871Z,17.58
2018-09-11T06:53:38.724Z,17.69
2018-09-11T06:54:38.719Z,17.67
2018-09-11T06:55:38.574Z,17.76
2018-09-11T06:56:38.507Z,17.71
2018-09-11T06:57:38.429Z,17.81
2018-09-11T06:58:38.401Z,17.84
2018-09-11T06:59:38.277Z,17.92
2018-09-11T07:00:38.368Z,17.94
2018-09-11T07:01:38.122Z,18.00
2018-09-11T07:02:38.122Z,18.06
2018-09-11T07:03:37.971Z,18.04
2018-09-11T07:04:37.931Z,18.10
2018-09-11T07:05:37.822Z,18.25
2018-09-11T07:06:37.844Z,18.21
2018-09-11T07:07:37.677Z,18.27
2018-09-11T07:08:37.692Z,18.28
2018-09-11T07:09:37.561Z,18.32
2018-09-11T07:10:37.564Z,18.39
2018-09-11T07:11:37.377Z,18.44
2018-09-11T07:12:37.372Z,18.55
2018-09-11T07:13:37.221Z,18.61
2018-09-11T07:14:37.181Z,18.57
2018-09-11T07:15:37.187Z,18.62
2018-09-11T07:16:37.001Z,18.67
2018-09-11T07:17:36.997Z,18.57
2018-09-11T07:18:36.851Z,18.69
2018-09-11T07:19:36.814Z,18.71
2018-09-11T07:20:36.703Z,18.74
2018-09-11T07:21:36.717Z,18.89
2018-09-11T07:22:36.558Z,18.86
2018-09-11T07:23:36.524Z,18.97
2018-09-11T07:24:36.405Z,19.01
2018-09-11T07:25:36.438Z,19.05
2018-09-11T07:26:36.255Z,19.18
2018-09-11T07:27:36.251Z,19.18
2018-09-11T07:28:36.107Z,19.23
2018-09-11T07:29:36.033Z,19.31
2018-09-11T07:30:35.957Z,19.43
2018-09-11T07:31:35.964Z,19.48
2018-09-11T07:32:35.811Z,19.55
2018-09-11T07:33:35.777Z,19.61
2018-09-11T07:34:35.660Z,19.76
2018-09-11T07:35:35.689Z,19.80
2018-09-11T07:36:35.515Z,19.91
2018-09-11T07:37:35.468Z,20.09
2018-09-11T07:38:35.367Z,20.01
2018-09-11T07:39:35.374Z,20.01
2018-09-11T07:40:35.216Z,20.06
2018-09-11T07:41:35.184Z,20.09
2018-09-11T07:42:35.069Z,20.24
2018-09-11T07:43:35.011Z,20.31
2018-09-11T07:44:34.923Z,20.38
2018-09-11T07:45:34.986Z,20.47
2018-09-11T07:46:34.776Z,20.57
2018-09-11T07:47:34.711Z,20.50
2018-09-11T07:48:34.628Z,20.54
2018-09-11T07:49:34.560Z,20.64
2018-09-11T07:50:34.491Z,20.66
2018-09-11T07:51:34.415Z,20.80
2018-09-11T07:52:34.392Z,20.87
2018-09-11T07:53:34.269Z,20.98
2018-09-11T07:54:34.190Z,21.16
2018-09-11T07:55:34.122Z,21.26
2018-09-11T07:56:34.040Z,21.26
2018-09-11T07:57:34.028Z,21.44
2018-09-11T07:58:33.892Z,21.66
2018-09-11T07:59:33.825Z,21.78
2018-09-11T08:00:33.750Z,21.81
2018-09-11T08:01:33.682Z,22.04
2018-09-11T08:02:33.603Z,22.02
2018-09-11T08:03:33.536Z,22.13
2018-09-11T08:04:33.459Z,22.19
2018-09-11T08:05:33.399Z,22.39
2018-09-11T08:06:33.309Z,22.47
2018-09-11T08:07:33.248Z,22.54
2018-09-11T08:08:33.167Z,22.65
2018-09-11T08:09:33.143Z,22.74
2018-09-11T08:10:33.022Z,22.90
2018-09-11T08:11:32.958Z,23.05
2018-09-11T08:12:32.879Z,23.07
2018-09-11T08:13:32.809Z,22.97
2018-09-11T08:14:32.784Z,23.12
2018-09-11T08:15:32.661Z,23.20
2018-09-11T08:16:32.777Z,23.34
2018-09-11T08:17:32.519Z,23.31
2018-09-11T08:18:32.505Z,23.33
2018-09-11T08:19:32.389Z,23.34
2018-09-11T08:20:32.416Z,23.52
2018-09-11T08:21:32.230Z,23.52
2018-09-11T08:22:32.226Z,23.46
2018-09-11T08:23:32.087Z,23.43
2018-09-11T08:24:32.137Z,23.42
2018-09-11T08:25:31.944Z,23.52
2018-09-11T08:26:31.947Z,23.61
2018-09-11T08:27:31.804Z,23.85
2018-09-11T08:28:31.759Z,23.83
2018-09-11T08:29:31.660Z,23.90
2018-09-11T08:30:31.664Z,23.90
2018-09-11T08:31:31.521Z,23.92
2018-09-11T08:32:31.475Z,23.98
2018-09-11T08:33:31.402Z,24.07
2018-09-11T08:34:31.389Z,24.27
2018-09-11T08:35:31.235Z,24.26
2018-09-11T08:36:31.196Z,24.41
2018-09-11T08:37:31.091Z,24.63
2018-09-11T08:38:31.107Z,24.71
2018-09-11T08:39:30.948Z,24.88
2018-09-11T08:40:30.918Z,24.82
2018-09-11T08:41:30.806Z,24.88
2018-09-11T08:42:30.830Z,25.08
2018-09-11T08:43:30.666Z,25.00
2018-09-11T08:44:30.593Z,25.13
2018-09-11T08:45:30.524Z,25.17
2018-09-11T08:46:30.562Z,25.27
2018-09-11T08:47:30.385Z,25.37
2018-09-11T08:48:30.313Z,25.45
2018-09-11T08:49:30.262Z,25.42
2018-09-11T08:50:30.176Z,25.42
2018-09-11T08:51:30.102Z,25.47
2018-09-11T08:52:30.064Z,25.59
2018-09-11T08:53:29.961Z,25.55
2018-09-11T08:54:29.990Z,25.46
2018-09-11T08:55:29.822Z,25.40
2018-09-11T08:56:29.805Z,25.45
2018-09-11T08:57:29.682Z,25.49
2018-09-11T08:58:29.775Z,25.52
2018-09-11T08:59:29.540Z,25.55
2018-09-11T09:00:29.474Z,25.75
2018-09-11T09:01:29.428Z,25.57
2018-09-11T09:02:29.333Z,25.68
2018-09-11T09:03:29.341Z,25.67
2018-09-11T09:04:29.198Z,25.75
2018-09-11T09:05:29.156Z,25.83
2018-09-11T09:06:29.054Z,25.90
2018-09-11T09:07:29.063Z,25.93
2018-09-11T09:08:28.921Z,26.02
2018-09-11T09:09:28.967Z,25.90
2018-09-11T09:10:28.778Z,25.78
2018-09-11T09:11:28.879Z,25.82
2018-09-11T09:12:28.637Z,25.89
2018-09-11T09:13:28.689Z,25.96
2018-09-11T09:14:28.500Z,25.92
2018-09-11T09:15:28.475Z,26.05
2018-09-11T09:16:28.359Z,26.04
2018-09-11T09:17:28.303Z,26.23
2018-09-11T09:18:28.226Z,26.09
2018-09-11T09:19:28.162Z,26.16
2018-09-11T09:20:28.083Z,26.24
2018-09-11T09:21:28.026Z,26.25
2018-09-11T09:22:27.946Z,26.27
2018-09-11T09:23:27.886Z,26.39
2018-09-11T09:24:27.810Z,26.47
2018-09-11T09:25:27.746Z,26.50
2018-09-11T09:26:27.669Z,26.47
2018-09-11T09:27:27.621Z,26.52
2018-09-11T09:28:27.534Z,26.58
2018-09-11T09:29:27.471Z,26.65
2018-09-11T09:30:27.394Z,26.71
2018-09-11T09:31:27.337Z,26.71
2018-09-11T09:32:27.256Z,26.80
2018-09-11T09:33:27.196Z,26.83
2018-09-11T09:34:27.122Z,26.83
2018-09-11T09:35:27.057Z,26.75
2018-09-11T09:36:27.063Z,26.94
2018-09-11T09:37:26.923Z,27.04
2018-09-11T09:38:26.847Z,27.17
2018-09-11T09:39:26.787Z,27.08
2018-09-11T09:40:26.712Z,27.17
2018-09-11T09:41:26.648Z,27.24
2018-09-11T09:42:26.574Z,27.17
2018-09-11T09:43:26.512Z,27.20
2018-09-11T09:44:26.444Z,27.08
2018-09-11T09:45:26.376Z,27.14
2018-09-11T09:46:26.307Z,27.17
2018-09-11T09:47:26.241Z,27.16
2018-09-11T09:48:26.172Z,27.09
2018-09-11T09:49:26.212Z,27.07
2018-09-11T09:50:26.027Z,27.13
2018-09-11T09:51:26.020Z,27.17
2018-09-11T09:52:25.893Z,27.21
2018-09-11T09:53:25.934Z,27.27
2018-09-11T09:54:25.754Z,27.19
2018-09-11T09:55:25.739Z,27.29
2018-09-11T09:56:25.618Z,27.35
2018-09-11T09:57:25.649Z,27.32
2018-09-11T09:58:25.492Z,27.41
2018-09-11T09:59:25.458Z,27.36
2018-09-11T10:00:25.350Z,27.35
2018-09-11T10:01:25.368Z,27.54
2018-09-11T10:02:25.218Z,27.44
2018-09-11T10:03:25.179Z,27.38
2018-09-11T10:04:25.079Z,27.32
2018-09-11T10:05:25.090Z,27.35
2018-09-11T10:06:24.944Z,27.35
2018-09-11T10:07:24.897Z,27.38
2018-09-11T10:08:24.809Z,27.38
2018-09-11T10:09:24.807Z,27.35
2018-09-11T10:10:24.673Z,27.35
2018-09-11T10:11:24.719Z,27.45
2018-09-11T10:12:24.537Z,27.50
2018-09-11T10:13:24.472Z,27.50
2018-09-11T10:14:24.434Z,27.61
2018-09-11T10:15:24.338Z,27.69
2018-09-11T10:16:24.343Z,27.83
2018-09-11T10:17:24.204Z,27.73
2018-09-11T10:18:24.140Z,27.73
2018-09-11T10:19:24.160Z,27.80
2018-09-11T10:20:24.001Z,27.87
2018-09-11T10:21:23.970Z,27.87
2018-09-11T10:22:23.867Z,27.95
2018-09-11T10:23:23.795Z,27.98
2018-09-11T10:24:23.729Z,28.06
2018-09-11T10:25:23.759Z,28.07
2018-09-11T10:26:23.592Z,28.07
2018-09-11T10:27:23.569Z,28.06
2018-09-11T10:28:23.466Z,28.09
2018-09-11T10:29:23.479Z,28.11
2018-09-11T10:30:23.327Z,28.34
2018-09-11T10:31:23.287Z,28.29
2018-09-11T10:32:23.195Z,28.24
2018-09-11T10:33:23.201Z,28.32
2018-09-11T10:34:23.061Z,28.35
2018-09-11T10:35:23.037Z,28.41
2018-09-11T10:36:22.919Z,28.34
2018-09-11T10:37:22.947Z,28.38
2018-09-11T10:38:22.789Z,28.46
2018-09-11T10:39:22.785Z,28.49
2018-09-11T10:40:22.656Z,28.44
2018-09-11T10:41:22.668Z,28.39
2018-09-11T10:42:22.522Z,28.43
2018-09-11T10:43:22.482Z,28.44
2018-09-11T10:44:22.396Z,28.51
2018-09-11T10:45:22.391Z,28.46
2018-09-11T10:46:22.255Z,28.59
2018-09-11T10:47:22.300Z,28.56
2018-09-11T10:48:22.125Z,28.73
2018-09-11T10:49:22.115Z,28.73
2018-09-11T10:50:21.988Z,28.80
2018-09-11T10:51:22.019Z,28.88
2018-09-11T10:52:21.852Z,29.01
2018-09-11T10:53:21.826Z,28.93
2018-09-11T10:54:21.716Z,28.87
2018-09-11T10:55:21.738Z,28.96
2018-09-11T10:56:21.589Z,29.07
2018-09-11T10:57:21.547Z,29.06
2018-09-11T10:58:21.492Z,28.91
2018-09-11T10:59:21.455Z,28.94
2018-09-11T11:00:21.373Z,28.96
2018-09-11T11:01:21.370Z,28.86
2018-09-11T11:02:21.190Z,28.78
2018-09-11T11:03:21.179Z,28.72
2018-09-11T11:04:21.055Z,28.75
2018-09-11T11:05:21.101Z,28.87
2018-09-11T11:06:20.928Z,28.94
2018-09-11T11:07:20.901Z,28.96
2018-09-11T11:08:20.794Z,29.04
2018-09-11T11:09:20.807Z,29.04
2018-09-11T11:10:20.665Z,28.96
2018-09-11T11:11:20.617Z,29.09
2018-09-11T11:12:20.527Z,28.98
2018-09-11T11:13:20.525Z,28.87
2018-09-11T11:14:20.400Z,28.68
2018-09-11T11:15:20.439Z,28.61
2018-09-11T11:16:20.268Z,28.68
2018-09-11T11:17:20.248Z,28.53
2018-09-11T11:18:20.134Z,28.49
2018-09-11T11:19:20.159Z,28.41
2018-09-11T11:20:19.999Z,28.46
2018-09-11T11:21:19.973Z,28.35
2018-09-11T11:22:19.870Z,28.35
2018-09-11T11:23:19.878Z,28.22
2018-09-11T11:24:19.732Z,28.14
2018-09-11T11:25:19.688Z,28.22
2018-09-11T11:26:19.605Z,28.19
2018-09-11T11:27:19.665Z,28.24
2018-09-11T11:28:19.467Z,28.19
2018-09-11T11:29:19.508Z,28.34
2018-09-11T11:30:19.332Z,28.35
2018-09-11T11:31:19.319Z,28.47
2018-09-11T11:32:19.210Z,28.61
2018-09-11T11:33:19.229Z,28.73
2018-09-11T11:34:19.067Z,28.84
2018-09-11T11:35:19.004Z,28.90
2018-09-11T11:36:19.201Z,29.03
2018-09-11T11:37:18.983Z,29.01
2018-09-11T11:38:18.853Z,29.07
2018-09-11T11:39:18.738Z,29.06
2018-09-11T11:40:18.763Z,29.09
2018-09-11T11:41:18.608Z,29.07
2018-09-11T11:42:18.618Z,29.18
2018-09-11T11:43:18.474Z,29.16
2018-09-11T11:44:18.486Z,29.25
2018-09-11T11:45:18.341Z,29.16
2018-09-11T11:46:18.293Z,29.14
2018-09-11T11:47:18.208Z,29.18
2018-09-11T11:48:18.197Z,29.22
2018-09-11T11:49:18.076Z,29.32
2018-09-11T11:50:18.114Z,29.32
2018-09-11T11:51:17.943Z,29.40
2018-09-11T11:52:17.924Z,29.51
2018-09-11T11:53:17.814Z,29.55
2018-09-11T11:54:17.833Z,29.66
2018-09-11T11:55:17.731Z,29.71
2018-09-11T11:56:17.645Z,29.81
2018-09-11T11:57:17.547Z,29.74
2018-09-11T11:58:17.553Z,29.69
2018-09-11T11:59:17.415Z,29.71
2018-09-11T12:00:17.459Z,29.63
2018-09-11T12:01:17.305Z,29.81
2018-09-11T12:02:17.272Z,29.77
2018-09-11T12:03:17.156Z,29.92
2018-09-11T12:04:17.185Z,29.95
2018-09-11T12:05:17.022Z,30.02
2018-09-11T12:06:16.994Z,30.14
2018-09-11T12:07:16.891Z,30.11
2018-09-11T12:08:16.905Z,29.97
2018-09-11T12:09:16.763Z,30.02
2018-09-11T12:10:16.715Z,29.95
2018-09-11T12:11:16.628Z,29.77
2018-09-11T12:12:16.624Z,29.68
2018-09-11T12:13:16.499Z,29.68
2018-09-11T12:14:16.536Z,29.65
2018-09-11T12:15:16.399Z,29.68
2018-09-11T12:16:16.315Z,29.62
2018-09-11T12:17:16.346Z,29.66
2018-09-11T12:18:16.171Z,29.68
2018-09-11T12:19:16.108Z,29.81
2018-09-11T12:20:16.062Z,29.83
2018-09-11T12:21:15.974Z,29.83
2018-09-11T12:22:16.065Z,29.95
2018-09-11T12:23:15.843Z,30.02
2018-09-11T12:24:15.883Z,30.05
2018-09-11T12:25:15.710Z,30.06
2018-09-11T12:26:15.726Z,30.11
2018-09-11T12:27:15.582Z,29.97
2018-09-11T12:28:15.706Z,29.95
2018-09-11T12:29:15.451Z,29.81
2018-09-11T12:30:15.513Z,29.77
2018-09-11T12:31:15.509Z,29.77
2018-09-11T12:32:15.424Z,29.81
2018-09-11T12:33:15.188Z,29.92
2018-09-11T12:34:15.234Z,29.97
2018-09-11T12:35:15.063Z,29.99
2018-09-11T12:36:15.044Z,30.03
2018-09-11T12:37:14.932Z,30.08
2018-09-11T12:38:15.056Z,30.17
2018-09-11T12:39:14.797Z,30.15
2018-09-11T12:40:14.762Z,30.26
2018-09-11T12:41:14.665Z,30.17
2018-09-11T12:42:14.777Z,30.17
2018-09-11T12:43:14.537Z,30.15
2018-09-11T12:44:14.471Z,30.11
2018-09-11T12:45:14.594Z,30.26
2018-09-11T12:46:14.657Z,30.34
2018-09-11T12:47:14.772Z,30.34
2018-09-11T12:48:14.598Z,30.46
2018-09-11T12:49:18.820Z,30.40
2018-09-11T12:50:14.079Z,30.36
2018-09-11T12:51:14.122Z,30.49